Terminal Aerodrome Forecast
Issued by NWS Mobile, AL

Home | Current Version | Previous Version | Text Only | Print | Product List | Glossary On
Versions: 1 2 3 4 5 6 7 8 9 10 11 12 13 14 15 16 17 18 19 20 21 22 23 24
000
FTUS44 KMOB 032332
TAFPNS
TAF
KPNS 032332Z 0400/0424 20008KT P6SM VCSH SCT250
     FM040300 VRB04KT P6SM SKC
     FM041400 16009KT P6SM FEW030 SCT250=

USA.gov is the U.S. government's official web portal to all federal, state and local government web resources and services.